createdAt,value
2019-04-21T00:00:45.661Z,6.50
2019-04-21T00:03:18.211Z,6.73
2019-04-21T00:06:07.607Z,6.87
2019-04-21T00:11:15.259Z,8.07
2019-04-21T00:13:39.636Z,6.77
2019-04-21T00:16:06.816Z,7.33
2019-04-21T00:18:55.806Z,8.03
2019-04-21T00:21:31.520Z,7.60
2019-04-21T00:24:28.986Z,7.73
2019-04-21T00:27:13.848Z,7.67
2019-04-21T00:29:44.491Z,8.27
2019-04-21T00:32:16.704Z,8.17
2019-04-21T00:34:32.146Z,8.07
2019-04-21T00:37:17.060Z,7.60
2019-04-21T00:40:01.919Z,7.80
2019-04-21T00:42:29.076Z,7.53
2019-04-21T00:45:00.805Z,7.70
2019-04-21T00:47:34.065Z,7.53
2019-04-21T00:50:12.960Z,7.00
2019-04-21T00:55:48.831Z,7.03
2019-04-21T00:58:24.942Z,7.67
2019-04-21T01:00:57.065Z,7.83
2019-04-21T01:03:26.775Z,8.03
2019-04-21T01:05:58.845Z,7.77
2019-04-21T01:08:31.324Z,8.13
2019-04-21T01:11:02.192Z,7.37
2019-04-21T01:13:44.027Z,9.10
2019-04-21T01:16:13.806Z,8.13
2019-04-21T01:18:44.038Z,8.13
2019-04-21T01:20:54.808Z,8.40
2019-04-21T01:23:25.773Z,8.80
2019-04-21T01:26:11.993Z,8.60
2019-04-21T01:28:49.492Z,8.70
2019-04-21T01:31:17.386Z,9.50
2019-04-21T01:33:56.165Z,8.37
2019-04-21T01:36:24.152Z,7.70
2019-04-21T01:39:05.317Z,8.87
2019-04-21T01:41:42.852Z,9.43
2019-04-21T01:44:09.364Z,8.70
2019-04-21T01:46:36.004Z,8.47
2019-04-21T01:49:09.256Z,9.20
2019-04-21T01:51:59.351Z,8.20
2019-04-21T01:54:48.267Z,7.80
2019-04-21T01:57:25.952Z,9.23
2019-04-21T01:59:51.197Z,8.17
2019-04-21T02:02:41.427Z,9.03
2019-04-21T02:05:11.948Z,8.43
2019-04-21T02:07:40.720Z,7.83
2019-04-21T02:10:17.888Z,8.40
2019-04-21T02:12:51.260Z,7.90
2019-04-21T02:15:23.919Z,8.63
2019-04-21T02:17:54.111Z,9.27
2019-04-21T02:20:17.986Z,8.83
2019-04-21T02:23:10.048Z,9.33
2019-04-21T02:25:32.313Z,9.00
2019-04-21T02:28:04.358Z,8.00
2019-04-21T02:31:01.166Z,10.07
2019-04-21T02:33:26.051Z,9.33
2019-04-21T02:36:00.579Z,9.47
2019-04-21T02:38:30.646Z,8.63
2019-04-21T02:41:01.451Z,8.47
2019-04-21T02:43:25.551Z,8.97
2019-04-21T02:48:45.774Z,8.97
2019-04-21T02:51:09.810Z,8.63
2019-04-21T02:54:06.840Z,8.40
2019-04-21T02:56:20.440Z,8.47
2019-04-21T02:59:05.329Z,8.77
2019-04-21T03:01:59.255Z,8.97
2019-04-21T03:04:42.547Z,9.37
2019-04-21T03:07:52.226Z,8.73
2019-04-21T03:10:18.236Z,8.40
2019-04-21T03:12:45.970Z,8.87
2019-04-21T03:15:21.367Z,8.63
2019-04-21T03:17:59.513Z,9.50
2019-04-21T03:25:41.867Z,7.87
2019-04-21T03:28:04.932Z,8.63
2019-04-21T03:31:08.153Z,8.63
2019-04-21T03:33:58.990Z,11.03
2019-04-21T03:36:27.200Z,7.87
2019-04-21T03:38:20.787Z,9.30
2019-04-21T03:40:47.517Z,8.83
2019-04-21T03:51:08.794Z,8.33
2019-04-21T03:53:39.940Z,8.83
2019-04-21T03:56:44.483Z,8.73
2019-04-21T03:58:56.266Z,8.47
2019-04-21T04:01:36.670Z,9.53
2019-04-21T04:04:30.515Z,9.27
2019-04-21T04:12:20.948Z,8.90
2019-04-21T04:14:50.248Z,8.87
2019-04-21T04:17:25.590Z,8.47
2019-04-21T04:20:08.976Z,9.03
2019-04-21T04:25:07.749Z,8.37
2019-04-21T04:27:51.348Z,8.67
2019-04-21T04:30:14.221Z,8.67
2019-04-21T04:38:05.158Z,9.00
2019-04-21T04:40:30.968Z,8.77
2019-04-21T04:43:16.986Z,8.87
2019-04-21T04:48:19.688Z,9.83
2019-04-21T04:50:53.081Z,8.90
2019-04-21T04:53:30.645Z,9.60
2019-04-21T05:01:17.086Z,8.73
2019-04-21T05:03:49.480Z,8.43
2019-04-21T05:19:30.550Z,8.77
2019-04-21T05:22:01.762Z,8.87
2019-04-21T05:24:23.066Z,10.03
2019-04-21T05:26:55.412Z,13.33
2019-04-21T05:29:55.616Z,7.77
2019-04-21T05:32:36.137Z,9.17
2019-04-21T05:35:14.608Z,9.17
2019-04-21T05:38:03.056Z,9.13
2019-04-21T05:40:31.865Z,9.30
2019-04-21T05:43:17.128Z,10.37
2019-04-21T05:45:53.299Z,8.77
2019-04-21T05:51:02.004Z,9.23
2019-04-21T05:53:36.200Z,8.80
2019-04-21T05:56:14.197Z,9.50
2019-04-21T05:58:43.594Z,9.83
2019-04-21T06:01:24.333Z,8.83
2019-04-21T06:03:57.019Z,9.03
2019-04-21T06:06:33.600Z,8.63
2019-04-21T06:09:00.929Z,9.03
2019-04-21T06:11:36.580Z,8.13
2019-04-21T06:14:14.483Z,8.80
2019-04-21T06:16:49.850Z,8.83
2019-04-21T06:19:22.537Z,8.37
2019-04-21T06:21:51.516Z,8.53
2019-04-21T06:24:29.887Z,8.37
2019-04-21T06:27:08.185Z,8.20
2019-04-21T06:29:38.065Z,9.00
2019-04-21T06:32:46.005Z,8.80
2019-04-21T06:35:01.129Z,8.87
2019-04-21T06:37:45.696Z,8.53
2019-04-21T06:42:40.275Z,9.10
2019-04-21T06:45:12.260Z,9.90
2019-04-21T06:47:53.978Z,10.17
2019-04-21T06:50:15.844Z,9.33
2019-04-21T06:52:55.721Z,10.00
2019-04-21T06:55:19.885Z,10.43
2019-04-21T06:57:56.027Z,10.03
2019-04-21T07:00:27.482Z,10.83
2019-04-21T07:03:08.320Z,11.73
2019-04-21T07:05:41.332Z,11.40
2019-04-21T07:08:23.261Z,10.37
2019-04-21T07:10:48.416Z,10.50
2019-04-21T07:13:15.321Z,11.20
2019-04-21T07:15:53.297Z,12.53
2019-04-21T07:18:27.601Z,11.83
2019-04-21T07:21:00.804Z,10.87
2019-04-21T07:23:39.999Z,11.90
2019-04-21T07:26:11.124Z,11.67
2019-04-21T07:28:47.889Z,11.83
2019-04-21T07:31:29.081Z,11.80
2019-04-21T07:36:30.519Z,11.37
2019-04-21T07:38:49.760Z,11.47
2019-04-21T07:41:18.560Z,11.47
2019-04-21T07:44:00.307Z,10.97
2019-04-21T07:46:28.972Z,11.37
2019-04-21T07:49:39.946Z,10.90
2019-04-21T07:52:48.994Z,10.60
2019-04-21T07:57:44.102Z,10.53
2019-04-21T08:00:45.811Z,11.37
2019-04-21T08:02:57.243Z,10.43
2019-04-21T08:05:35.248Z,11.23
2019-04-21T08:07:57.981Z,11.20
2019-04-21T08:10:40.839Z,10.77
2019-04-21T08:13:28.868Z,10.17
2019-04-21T08:15:52.869Z,10.67
2019-04-21T08:18:27.094Z,11.53
2019-04-21T08:21:01.285Z,10.83
2019-04-21T08:23:31.851Z,11.17
2019-04-21T08:28:47.478Z,10.03
2019-04-21T08:31:25.764Z,10.87
2019-04-21T08:33:56.461Z,9.73
2019-04-21T08:39:03.284Z,8.93
2019-04-21T08:41:39.473Z,7.73
2019-04-21T08:44:16.827Z,8.20
2019-04-21T08:47:07.887Z,8.20
2019-04-21T08:49:41.308Z,8.40
2019-04-21T08:52:21.614Z,8.53
2019-04-21T08:54:49.653Z,8.87
2019-04-21T08:58:08.436Z,7.87
2019-04-21T09:00:40.957Z,8.47
2019-04-21T09:03:31.198Z,8.87
2019-04-21T09:06:12.630Z,8.10
2019-04-21T09:08:39.583Z,8.03
2019-04-21T09:11:06.947Z,8.67
2019-04-21T09:13:41.108Z,8.57
2019-04-21T09:16:17.006Z,9.63
2019-04-21T09:18:47.058Z,8.10
2019-04-21T09:21:32.727Z,8.37
2019-04-21T09:24:13.380Z,8.73
2019-04-21T09:26:40.653Z,8.57
2019-04-21T09:29:04.293Z,8.60
2019-04-21T09:31:33.847Z,8.53
2019-04-21T09:34:04.759Z,9.03
2019-04-21T09:36:45.958Z,8.13
2019-04-21T09:39:21.912Z,8.60
2019-04-21T09:41:53.711Z,7.37
2019-04-21T09:44:29.024Z,8.00
2019-04-21T09:46:58.608Z,7.97
2019-04-21T09:49:31.318Z,8.13
2019-04-21T09:52:08.971Z,6.83
2019-04-21T09:54:46.161Z,7.23
2019-04-21T09:57:21.945Z,8.47
2019-04-21T09:59:57.085Z,7.73
2019-04-21T10:02:36.628Z,8.07
2019-04-21T10:04:57.690Z,8.07
2019-04-21T10:07:35.613Z,8.00
2019-04-21T10:10:03.894Z,7.00
2019-04-21T10:12:39.528Z,7.93
2019-04-21T10:15:11.669Z,7.83
2019-04-21T10:17:53.989Z,8.23
2019-04-21T10:23:18.371Z,7.67
2019-04-21T10:25:52.572Z,7.87
2019-04-21T10:28:28.771Z,7.43
2019-04-21T10:31:05.273Z,8.47
2019-04-21T10:33:36.867Z,7.47
2019-04-21T10:36:08.906Z,8.10
2019-04-21T10:38:46.664Z,7.30
2019-04-21T10:41:15.445Z,8.37
2019-04-21T10:43:49.341Z,8.03
2019-04-21T10:46:20.923Z,8.03
2019-04-21T10:48:54.933Z,8.03
2019-04-21T10:51:28.806Z,8.37
2019-04-21T10:54:00.196Z,8.47
2019-04-21T10:56:38.793Z,7.97
2019-04-21T10:59:10.228Z,8.23
2019-04-21T11:01:43.039Z,8.50
2019-04-21T11:04:27.228Z,8.03
2019-04-21T11:06:57.060Z,8.20
2019-04-21T11:09:31.853Z,7.37
2019-04-21T11:12:10.786Z,7.70
2019-04-21T11:14:47.225Z,7.33
2019-04-21T11:17:50.544Z,7.87
2019-04-21T11:20:51.274Z,8.30
2019-04-21T11:23:27.094Z,8.20
2019-04-21T11:26:06.386Z,8.53
2019-04-21T11:28:38.914Z,7.90
2019-04-21T11:31:13.313Z,7.47
2019-04-21T11:33:45.480Z,8.27
2019-04-21T11:36:19.574Z,8.23
2019-04-21T11:39:31.595Z,8.17
2019-04-21T11:41:57.459Z,7.40
2019-04-21T11:44:35.326Z,7.73
2019-04-21T11:47:12.213Z,9.00
2019-04-21T11:49:45.286Z,8.87
2019-04-21T11:52:19.003Z,8.47
2019-04-21T11:54:55.425Z,9.10
2019-04-21T11:57:36.722Z,9.57
2019-04-21T12:00:09.720Z,9.70
2019-04-21T12:02:45.734Z,8.60
2019-04-21T12:05:17.380Z,8.67
2019-04-21T12:07:49.367Z,8.83
2019-04-21T12:10:21.618Z,8.80
2019-04-21T12:12:53.168Z,9.73
2019-04-21T12:15:25.075Z,8.87
2019-04-21T12:17:56.532Z,8.83
2019-04-21T12:20:28.823Z,9.07
2019-04-21T12:23:04.652Z,8.70
2019-04-21T12:25:45.286Z,7.77
2019-04-21T12:28:19.711Z,8.40
2019-04-21T12:31:00.100Z,9.00
2019-04-21T12:33:54.063Z,8.47
2019-04-21T12:36:25.430Z,8.77
2019-04-21T12:39:01.068Z,8.33
2019-04-21T12:41:32.873Z,8.00
2019-04-21T12:44:04.588Z,8.27
2019-04-21T12:46:40.040Z,8.30
2019-04-21T12:49:13.796Z,8.83
2019-04-21T12:51:49.366Z,9.57
2019-04-21T12:54:21.668Z,9.30
2019-04-21T12:56:59.136Z,8.30
2019-04-21T12:59:32.874Z,7.50
2019-04-21T13:02:07.499Z,8.03
2019-04-21T13:04:49.725Z,7.80
2019-04-21T13:07:33.200Z,7.97
2019-04-21T13:10:10.607Z,8.03
2019-04-21T13:12:42.218Z,8.30
2019-04-21T13:15:15.711Z,8.63
2019-04-21T13:17:47.366Z,8.57
2019-04-21T13:20:23.439Z,8.40
2019-04-21T13:23:20.939Z,7.43
2019-04-21T13:25:54.286Z,8.40
2019-04-21T13:28:30.438Z,7.47
2019-04-21T13:31:10.155Z,8.80
2019-04-21T13:33:42.066Z,7.83
2019-04-21T13:36:14.120Z,9.13
2019-04-21T13:39:37.992Z,8.50
2019-04-21T13:41:51.842Z,8.00
2019-04-21T13:44:17.853Z,8.50
2019-04-21T13:46:52.519Z,8.43
2019-04-21T13:49:25.438Z,8.47
2019-04-21T13:52:09.021Z,8.17
2019-04-21T13:54:41.172Z,7.90
2019-04-21T13:57:16.993Z,7.60
2019-04-21T13:59:49.551Z,7.30
2019-04-21T14:02:42.696Z,8.13
2019-04-21T14:05:15.773Z,6.83
2019-04-21T14:07:50.276Z,7.87
2019-04-21T14:10:25.886Z,7.07
2019-04-21T14:13:00.364Z,7.50
2019-04-21T14:15:32.421Z,7.37
2019-04-21T14:18:15.041Z,8.17
2019-04-21T14:21:05.056Z,8.20
2019-04-21T14:23:46.066Z,8.03
2019-04-21T14:26:16.297Z,7.67
2019-04-21T14:28:51.305Z,7.13
2019-04-21T14:31:26.337Z,7.87
2019-04-21T14:33:58.300Z,8.47
2019-04-21T14:36:32.952Z,7.30
2019-04-21T14:39:05.871Z,7.43
2019-04-21T14:41:44.292Z,7.57
2019-04-21T14:44:18.563Z,8.53
2019-04-21T14:47:03.160Z,8.10
2019-04-21T14:49:57.411Z,6.67
2019-04-21T14:52:37.119Z,7.33
2019-04-21T14:55:18.567Z,7.33
2019-04-21T14:57:56.969Z,8.13
2019-04-21T15:00:31.369Z,7.70
2019-04-21T15:03:05.806Z,7.13
2019-04-21T15:05:37.648Z,6.63
2019-04-21T15:08:09.138Z,6.73
2019-04-21T15:10:40.942Z,7.20
2019-04-21T15:13:12.068Z,7.27
2019-04-21T15:15:43.742Z,7.13
2019-04-21T15:18:16.874Z,7.03
2019-04-21T15:20:50.566Z,7.17
2019-04-21T15:23:25.263Z,7.40
2019-04-21T15:25:56.383Z,6.67
2019-04-21T15:28:31.594Z,6.93
2019-04-21T15:31:00.767Z,7.33
2019-04-21T15:33:35.036Z,5.87
2019-04-21T15:36:09.000Z,6.57
2019-04-21T15:38:43.690Z,6.47
2019-04-21T15:41:16.371Z,6.13
2019-04-21T15:43:50.804Z,6.00
2019-04-21T15:46:22.616Z,5.90
2019-04-21T15:48:55.040Z,6.40
2019-04-21T15:51:29.614Z,5.57
2019-04-21T15:54:06.823Z,6.13
2019-04-21T15:57:00.721Z,5.47
2019-04-21T15:59:48.443Z,5.63
2019-04-21T16:02:46.630Z,5.67
2019-04-21T16:05:18.815Z,6.40
2019-04-21T16:07:51.926Z,5.60
2019-04-21T16:10:34.629Z,5.90
2019-04-21T16:12:58.490Z,5.83
2019-04-21T16:15:32.630Z,5.80
2019-04-21T16:18:03.697Z,5.40
2019-04-21T16:20:37.651Z,5.17
2019-04-21T16:23:14.874Z,5.43
2019-04-21T16:25:59.170Z,5.90
2019-04-21T16:28:31.194Z,4.97
2019-04-21T16:31:02.604Z,5.20
2019-04-21T16:33:33.673Z,5.10
2019-04-21T16:36:07.143Z,5.20
2019-04-21T16:38:39.567Z,5.23
2019-04-21T16:41:12.089Z,5.30
2019-04-21T16:43:43.258Z,4.80
2019-04-21T16:46:15.741Z,5.23
2019-04-21T16:48:53.768Z,5.10
2019-04-21T16:51:29.091Z,5.03
2019-04-21T16:54:24.038Z,4.70
2019-04-21T16:57:08.137Z,4.40
2019-04-21T16:59:42.331Z,4.53
2019-04-21T17:02:18.664Z,4.83
2019-04-21T17:04:52.166Z,4.27
2019-04-21T17:07:30.292Z,4.20
2019-04-21T17:10:02.534Z,4.00
2019-04-21T17:12:39.476Z,4.20
2019-04-21T17:15:33.308Z,4.43
2019-04-21T17:18:10.282Z,4.23
2019-04-21T17:20:41.136Z,4.17
2019-04-21T17:23:04.428Z,4.10
2019-04-21T17:25:35.322Z,3.67
2019-04-21T17:28:07.832Z,4.30
2019-04-21T17:30:58.180Z,4.00
2019-04-21T17:33:32.374Z,4.30
2019-04-21T17:36:07.168Z,4.00
2019-04-21T17:38:41.774Z,4.07
2019-04-21T17:41:26.965Z,3.90
2019-04-21T17:43:47.936Z,3.80
2019-04-21T17:46:24.501Z,3.93
2019-04-21T17:48:59.074Z,4.23
2019-04-21T17:51:58.606Z,4.03
2019-04-21T17:54:41.298Z,3.97
2019-04-21T17:57:26.539Z,3.40
2019-04-21T18:00:09.717Z,3.90
2019-04-21T18:02:43.428Z,3.60
2019-04-21T18:05:15.221Z,3.27
2019-04-21T18:07:46.729Z,3.73
2019-04-21T18:10:15.918Z,3.80
2019-04-21T18:12:49.094Z,3.30
2019-04-21T18:15:38.316Z,3.70
2019-04-21T18:17:52.421Z,4.03
2019-04-21T18:20:26.153Z,3.43
2019-04-21T18:23:38.215Z,3.10
2019-04-21T18:26:01.992Z,3.30
2019-04-21T18:28:46.671Z,3.27
2019-04-21T18:32:19.716Z,4.53
2019-04-21T18:35:19.204Z,4.23
2019-04-21T18:38:04.512Z,4.17
2019-04-21T18:40:36.429Z,3.03
2019-04-21T18:43:50.197Z,3.63
2019-04-21T18:46:22.259Z,3.63
2019-04-21T18:49:03.313Z,3.50
2019-04-21T18:52:01.283Z,4.00
2019-04-21T18:54:46.130Z,4.40
2019-04-21T18:57:21.926Z,4.40
2019-04-21T18:59:47.654Z,4.20
2019-04-21T19:02:22.470Z,4.20
2019-04-21T19:04:59.943Z,4.23
2019-04-21T19:07:51.868Z,3.90
2019-04-21T19:10:37.610Z,4.17
2019-04-21T19:13:28.237Z,4.30
2019-04-21T19:16:08.189Z,4.23
2019-04-21T19:20:54.240Z,3.83
2019-04-21T19:23:39.159Z,3.53
2019-04-21T19:26:17.341Z,3.40
2019-04-21T19:28:45.976Z,4.30
2019-04-21T19:31:15.954Z,4.50
2019-04-21T19:33:42.436Z,5.27
2019-04-21T19:36:05.660Z,5.40
2019-04-21T19:38:49.025Z,4.77
2019-04-21T19:41:28.073Z,4.03
2019-04-21T19:44:07.035Z,4.87
2019-04-21T19:46:38.442Z,4.80
2019-04-21T19:49:27.856Z,3.80
2019-04-21T19:51:52.200Z,4.43
2019-04-21T19:54:25.774Z,3.77
2019-04-21T19:56:53.532Z,4.70
2019-04-21T19:59:34.547Z,4.50
2019-04-21T20:02:04.585Z,4.70
2019-04-21T20:04:53.394Z,5.07
2019-04-21T20:07:28.910Z,4.00
2019-04-21T20:10:15.480Z,4.30
2019-04-21T20:12:52.131Z,3.93
2019-04-21T20:15:43.417Z,3.97
2019-04-21T20:18:01.911Z,4.57
2019-04-21T20:20:21.563Z,4.47
2019-04-21T20:22:54.229Z,4.43
2019-04-21T20:25:27.232Z,3.30
2019-04-21T20:28:14.341Z,3.60
2019-04-21T20:31:00.679Z,3.87
2019-04-21T20:36:21.150Z,3.83
2019-04-21T20:38:43.204Z,4.40
2019-04-21T20:41:27.013Z,3.90
2019-04-21T20:44:06.225Z,3.90
2019-04-21T20:46:36.839Z,3.83
2019-04-21T20:49:06.928Z,4.17
2019-04-21T20:52:02.321Z,4.30
2019-04-21T20:54:31.696Z,4.10
2019-04-21T20:57:06.158Z,4.27
2019-04-21T20:59:44.039Z,3.90
2019-04-21T21:02:19.966Z,4.57
2019-04-21T21:04:43.447Z,4.17
2019-04-21T21:07:40.522Z,3.83
2019-04-21T21:10:04.650Z,4.40
2019-04-21T21:12:52.712Z,4.43
2019-04-21T21:15:12.638Z,4.30
2019-04-21T21:18:01.438Z,4.20
2019-04-21T21:20:29.494Z,4.10
2019-04-21T21:22:57.311Z,4.60
2019-04-21T21:25:41.394Z,4.30
2019-04-21T21:27:59.611Z,4.30
2019-04-21T21:30:36.210Z,4.53
2019-04-21T21:33:18.546Z,4.00
2019-04-21T21:35:41.093Z,4.03
2019-04-21T21:38:31.515Z,4.10
2019-04-21T21:41:03.646Z,4.27
2019-04-21T21:43:28.700Z,4.17
2019-04-21T21:46:10.781Z,4.20
2019-04-21T21:48:53.628Z,3.90
2019-04-21T21:51:29.006Z,4.57
2019-04-21T21:53:50.651Z,4.03
2019-04-21T21:56:22.681Z,4.17
2019-04-21T21:58:56.994Z,4.43
2019-04-21T22:01:39.871Z,5.10
2019-04-21T22:04:13.100Z,4.30
2019-04-21T22:06:47.285Z,4.43
2019-04-21T22:09:14.531Z,4.80
2019-04-21T22:11:56.695Z,4.20
2019-04-21T22:14:33.164Z,4.50
2019-04-21T22:17:20.321Z,4.40
2019-04-21T22:19:58.151Z,4.90
2019-04-21T22:22:21.468Z,4.63
2019-04-21T22:24:53.426Z,4.80
2019-04-21T22:27:23.229Z,4.40
2019-04-21T22:29:59.422Z,4.53
2019-04-21T22:32:29.446Z,4.47
2019-04-21T22:35:05.279Z,4.47
2019-04-21T22:37:44.878Z,3.87
2019-04-21T22:40:20.277Z,4.37
2019-04-21T22:42:57.964Z,4.63
2019-04-21T22:45:20.436Z,3.90
2019-04-21T22:47:58.695Z,4.93
2019-04-21T22:50:28.602Z,5.57
2019-04-21T22:53:05.782Z,4.73
2019-04-21T22:55:39.031Z,5.57
2019-04-21T22:58:11.459Z,4.43
2019-04-21T23:00:51.193Z,5.20
2019-04-21T23:03:24.908Z,4.73
2019-04-21T23:05:55.920Z,5.10
2019-04-21T23:08:36.382Z,4.03
2019-04-21T23:11:08.063Z,4.13
2019-04-21T23:13:36.636Z,4.67
2019-04-21T23:16:09.892Z,4.43
2019-04-21T23:19:04.770Z,4.50
2019-04-21T23:21:30.410Z,5.20
2019-04-21T23:24:13.507Z,4.37
2019-04-21T23:26:42.027Z,5.07
2019-04-21T23:29:21.152Z,5.07
2019-04-21T23:31:51.656Z,5.10
2019-04-21T23:34:06.447Z,4.70
2019-04-21T23:36:48.073Z,4.47
2019-04-21T23:39:15.661Z,5.40
2019-04-21T23:41:47.941Z,5.17
2019-04-21T23:44:20.237Z,4.63
2019-04-21T23:46:58.524Z,6.03
2019-04-21T23:49:35.393Z,5.27
2019-04-21T23:52:10.109Z,5.00
2019-04-21T23:54:43.082Z,5.20
2019-04-21T23:57:26.329Z,5.60
2019-04-21T23:59:53.455Z,4.60
